Callaway, Virginia
Current Conditions -  °F | °C
As of 1:54 PM on Saturday 25 Oct 2014 (Local Time) from KROA Reporting Station
Clear Clear  
Wind Chill: 68°   Ceiling: Unl
Heat Index: 68°   Visibility: 10mi
Dew Point: 40°   Wind: 7mph
Humidity: 36%   Direction: 240°WSW
Pressure: 29.96"   Gusts: NA
Location:  37.01°N, 80.05°W
Report Text: KROA 251754Z 24006KT 10SM CLR 20/04 A2996 RMK AO2 SLP140 60000 T02000044 10206 20056 58029
Loading
Personal Weather Stations






























Interactive Weather Map
Tropical Storm Tracking
New forecast layout! Learn more

10-Day Weather Forecast

Advertisements
Track Severe Weather on mobile